Metar z połowy godziny Komunikat METAR ze strony awiacja.imgw.pl Metar G30 EPLL METAR EPLL 162230Z 10003KT 070V140 6000 OVC024 M02/M05 Q1018 R25/29//95 =